sensor_id;sensor_type;location;lat;lon;timestamp;P1;durP1;ratioP1;P2;durP2;ratioP2
72337;SDS011;60294;64.134;-21.862;2022-11-20T00:00:04;12.77;;;1.77;;
72337;SDS011;60294;64.134;-21.862;2022-11-20T00:02:30;11.13;;;1.73;;
72337;SDS011;60294;64.134;-21.862;2022-11-20T00:04:56;19.30;;;1.87;;
72337;SDS011;60294;64.134;-21.862;2022-11-20T00:07:22;8.53;;;1.43;;
72337;SDS011;60294;64.134;-21.862;2022-11-20T00:09:48;12.20;;;1.93;;
72337;SDS011;60294;64.134;-21.862;2022-11-20T00:12:14;8.10;;;1.60;;
72337;SDS011;60294;64.134;-21.862;2022-11-20T00:14:40;19.50;;;2.57;;
72337;SDS011;60294;64.134;-21.862;2022-11-20T00:17:06;8.80;;;1.53;;
72337;SDS011;60294;64.134;-21.862;2022-11-20T00:19:32;13.37;;;2.30;;
72337;SDS011;60294;64.134;-21.862;2022-11-20T00:21:58;5.67;;;1.30;;
72337;SDS011;60294;64.134;-21.862;2022-11-20T00:24:23;10.27;;;1.93;;
72337;SDS011;60294;64.134;-21.862;2022-11-20T00:26:49;17.20;;;2.40;;
72337;SDS011;60294;64.134;-21.862;2022-11-20T00:29:15;9.50;;;2.10;;
72337;SDS011;60294;64.134;-21.862;2022-11-20T00:31:41;6.90;;;1.73;;
72337;SDS011;60294;64.134;-21.862;2022-11-20T00:34:06;13.97;;;1.90;;
72337;SDS011;60294;64.134;-21.862;2022-11-20T00:36:33;18.93;;;3.07;;
72337;SDS011;60294;64.134;-21.862;2022-11-20T00:38:59;9.70;;;2.23;;
72337;SDS011;60294;64.134;-21.862;2022-11-20T00:41:25;8.43;;;1.60;;
72337;SDS011;60294;64.134;-21.862;2022-11-20T00:43:53;19.30;;;2.37;;
72337;SDS011;60294;64.134;-21.862;2022-11-20T00:46:23;13.13;;;1.70;;
72337;SDS011;60294;64.134;-21.862;2022-11-20T00:48:51;7.23;;;1.57;;
72337;SDS011;60294;64.134;-21.862;2022-11-20T00:51:18;13.13;;;1.90;;
72337;SDS011;60294;64.134;-21.862;2022-11-20T00:53:46;12.20;;;2.13;;
72337;SDS011;60294;64.134;-21.862;2022-11-20T00:56:13;11.67;;;2.10;;
72337;SDS011;60294;64.134;-21.862;2022-11-20T00:58:41;10.13;;;2.37;;
72337;SDS011;60294;64.134;-21.862;2022-11-20T01:01:18;11.23;;;2.30;;
72337;SDS011;60294;64.134;-21.862;2022-11-20T01:03:47;12.80;;;1.77;;
72337;SDS011;60294;64.134;-21.862;2022-11-20T01:06:25;11.27;;;1.97;;
72337;SDS011;60294;64.134;-21.862;2022-11-20T01:08:57;13.57;;;2.23;;
72337;SDS011;60294;64.134;-21.862;2022-11-20T01:11:28;9.47;;;1.90;;
72337;SDS011;60294;64.134;-21.862;2022-11-20T01:13:57;7.93;;;1.25;;
72337;SDS011;60294;64.134;-21.862;2022-11-20T01:16:30;6.63;;;1.30;;
72337;SDS011;60294;64.134;-21.862;2022-11-20T01:19:02;9.27;;;1.60;;
72337;SDS011;60294;64.134;-21.862;2022-11-20T01:21:34;14.20;;;2.30;;
72337;SDS011;60294;64.134;-21.862;2022-11-20T01:24:02;9.90;;;2.43;;
72337;SDS011;60294;64.134;-21.862;2022-11-20T01:26:30;11.30;;;1.73;;
72337;SDS011;60294;64.134;-21.862;2022-11-20T01:28:58;10.97;;;2.13;;
72337;SDS011;60294;64.134;-21.862;2022-11-20T01:31:30;9.37;;;1.33;;
72337;SDS011;60294;64.134;-21.862;2022-11-20T01:34:01;14.93;;;2.43;;
72337;SDS011;60294;64.134;-21.862;2022-11-20T01:36:31;4.83;;;0.97;;
72337;SDS011;60294;64.134;-21.862;2022-11-20T01:38:59;5.00;;;1.33;;
72337;SDS011;60294;64.134;-21.862;2022-11-20T01:41:28;13.90;;;1.63;;
72337;SDS011;60294;64.134;-21.862;2022-11-20T01:44:14;10.13;;;1.97;;
72337;SDS011;60294;64.134;-21.862;2022-11-20T01:46:54;20.40;;;2.47;;
72337;SDS011;60294;64.134;-21.862;2022-11-20T01:52:20;11.90;;;1.40;;
72337;SDS011;60294;64.134;-21.862;2022-11-20T01:55:13;10.30;;;1.87;;
72337;SDS011;60294;64.134;-21.862;2022-11-20T01:57:42;6.57;;;2.30;;
72337;SDS011;60294;64.134;-21.862;2022-11-20T02:00:11;8.60;;;1.53;;
72337;SDS011;60294;64.134;-21.862;2022-11-20T02:02:39;7.53;;;1.47;;
72337;SDS011;60294;64.134;-21.862;2022-11-20T02:05:11;12.00;;;2.37;;
72337;SDS011;60294;64.134;-21.862;2022-11-20T02:07:45;7.83;;;1.20;;
72337;SDS011;60294;64.134;-21.862;2022-11-20T02:10:12;18.07;;;1.77;;
72337;SDS011;60294;64.134;-21.862;2022-11-20T02:12:38;11.90;;;1.87;;
72337;SDS011;60294;64.134;-21.862;2022-11-20T02:15:22;7.37;;;2.13;;
72337;SDS011;60294;64.134;-21.862;2022-11-20T02:17:48;8.33;;;1.73;;
72337;SDS011;60294;64.134;-21.862;2022-11-20T02:20:14;8.83;;;1.60;;
72337;SDS011;60294;64.134;-21.862;2022-11-20T02:22:43;7.50;;;1.90;;
72337;SDS011;60294;64.134;-21.862;2022-11-20T02:25:19;5.33;;;1.03;;
72337;SDS011;60294;64.134;-21.862;2022-11-20T02:27:46;7.80;;;1.17;;
72337;SDS011;60294;64.134;-21.862;2022-11-20T02:30:12;9.57;;;2.03;;
72337;SDS011;60294;64.134;-21.862;2022-11-20T02:32:38;9.60;;;1.20;;
72337;SDS011;60294;64.134;-21.862;2022-11-20T02:35:08;10.63;;;1.50;;
72337;SDS011;60294;64.134;-21.862;2022-11-20T02:37:55;9.67;;;2.53;;
72337;SDS011;60294;64.134;-21.862;2022-11-20T02:40:23;11.53;;;2.13;;
72337;SDS011;60294;64.134;-21.862;2022-11-20T02:42:52;14.67;;;3.43;;
72337;SDS011;60294;64.134;-21.862;2022-11-20T02:45:18;8.97;;;2.43;;
72337;SDS011;60294;64.134;-21.862;2022-11-20T02:47:44;14.60;;;2.07;;
72337;SDS011;60294;64.134;-21.862;2022-11-20T02:50:10;9.57;;;1.43;;
72337;SDS011;60294;64.134;-21.862;2022-11-20T02:52:37;9.10;;;2.77;;
72337;SDS011;60294;64.134;-21.862;2022-11-20T02:55:02;11.87;;;1.80;;
72337;SDS011;60294;64.134;-21.862;2022-11-20T02:57:29;6.80;;;1.40;;
72337;SDS011;60294;64.134;-21.862;2022-11-20T02:59:54;6.57;;;1.60;;
72337;SDS011;60294;64.134;-21.862;2022-11-20T03:02:20;16.23;;;3.30;;
72337;SDS011;60294;64.134;-21.862;2022-11-20T03:04:46;7.83;;;1.50;;
72337;SDS011;60294;64.134;-21.862;2022-11-20T03:07:12;16.67;;;2.97;;
72337;SDS011;60294;64.134;-21.862;2022-11-20T03:09:38;7.57;;;1.90;;
72337;SDS011;60294;64.134;-21.862;2022-11-20T03:12:04;7.50;;;1.63;;
72337;SDS011;60294;64.134;-21.862;2022-11-20T03:14:30;8.13;;;2.37;;
72337;SDS011;60294;64.134;-21.862;2022-11-20T03:16:56;13.00;;;2.03;;
72337;SDS011;60294;64.134;-21.862;2022-11-20T03:19:22;9.40;;;1.87;;
72337;SDS011;60294;64.134;-21.862;2022-11-20T03:21:47;12.97;;;1.73;;
72337;SDS011;60294;64.134;-21.862;2022-11-20T03:24:13;3.40;;;1.23;;
72337;SDS011;60294;64.134;-21.862;2022-11-20T03:26:39;13.20;;;2.73;;
72337;SDS011;60294;64.134;-21.862;2022-11-20T03:29:05;9.33;;;2.17;;
72337;SDS011;60294;64.134;-21.862;2022-11-20T03:31:35;10.97;;;2.00;;
72337;SDS011;60294;64.134;-21.862;2022-11-20T03:34:05;14.27;;;1.73;;
72337;SDS011;60294;64.134;-21.862;2022-11-20T03:36:32;8.30;;;1.60;;
72337;SDS011;60294;64.134;-21.862;2022-11-20T03:38:59;11.03;;;3.10;;
72337;SDS011;60294;64.134;-21.862;2022-11-20T03:41:28;4.80;;;1.03;;
72337;SDS011;60294;64.134;-21.862;2022-11-20T03:43:57;8.07;;;1.20;;
72337;SDS011;60294;64.134;-21.862;2022-11-20T03:46:24;5.97;;;1.67;;
72337;SDS011;60294;64.134;-21.862;2022-11-20T03:48:51;13.07;;;1.57;;
72337;SDS011;60294;64.134;-21.862;2022-11-20T03:53:47;16.23;;;3.33;;
72337;SDS011;60294;64.134;-21.862;2022-11-20T03:56:15;11.17;;;2.37;;
72337;SDS011;60294;64.134;-21.862;2022-11-20T03:58:42;5.50;;;1.30;;
72337;SDS011;60294;64.134;-21.862;2022-11-20T04:01:10;12.30;;;2.10;;
72337;SDS011;60294;64.134;-21.862;2022-11-20T04:03:38;13.13;;;2.27;;
72337;SDS011;60294;64.134;-21.862;2022-11-20T04:06:09;12.03;;;4.67;;
72337;SDS011;60294;64.134;-21.862;2022-11-20T04:08:36;13.80;;;2.43;;
72337;SDS011;60294;64.134;-21.862;2022-11-20T04:11:18;9.13;;;2.20;;
72337;SDS011;60294;64.134;-21.862;2022-11-20T04:13:47;12.50;;;2.93;;
72337;SDS011;60294;64.134;-21.862;2022-11-20T04:16:15;16.07;;;2.10;;
72337;SDS011;60294;64.134;-21.862;2022-11-20T04:18:41;8.10;;;2.03;;
72337;SDS011;60294;64.134;-21.862;2022-11-20T04:21:08;12.67;;;2.03;;
72337;SDS011;60294;64.134;-21.862;2022-11-20T04:23:34;13.40;;;2.37;;
72337;SDS011;60294;64.134;-21.862;2022-11-20T04:26:02;8.40;;;2.13;;
72337;SDS011;60294;64.134;-21.862;2022-11-20T04:28:29;18.57;;;2.00;;
72337;SDS011;60294;64.134;-21.862;2022-11-20T04:31:00;13.80;;;2.27;;
72337;SDS011;60294;64.134;-21.862;2022-11-20T04:33:27;17.50;;;2.08;;
72337;SDS011;60294;64.134;-21.862;2022-11-20T04:35:53;10.57;;;1.67;;
72337;SDS011;60294;64.134;-21.862;2022-11-20T04:38:18;12.60;;;1.40;;
72337;SDS011;60294;64.134;-21.862;2022-11-20T04:40:44;7.43;;;1.67;;
72337;SDS011;60294;64.134;-21.862;2022-11-20T04:43:10;12.17;;;2.00;;
72337;SDS011;60294;64.134;-21.862;2022-11-20T04:45:36;11.23;;;1.37;;
72337;SDS011;60294;64.134;-21.862;2022-11-20T04:48:01;18.03;;;3.90;;
72337;SDS011;60294;64.134;-21.862;2022-11-20T04:50:27;11.00;;;1.73;;
72337;SDS011;60294;64.134;-21.862;2022-11-20T04:52:53;6.90;;;1.53;;
72337;SDS011;60294;64.134;-21.862;2022-11-20T04:55:19;19.20;;;1.60;;
72337;SDS011;60294;64.134;-21.862;2022-11-20T04:57:44;16.60;;;3.80;;
72337;SDS011;60294;64.134;-21.862;2022-11-20T05:00:10;11.70;;;2.87;;
72337;SDS011;60294;64.134;-21.862;2022-11-20T05:02:37;14.73;;;2.87;;
72337;SDS011;60294;64.134;-21.862;2022-11-20T05:05:02;16.43;;;2.47;;
72337;SDS011;60294;64.134;-21.862;2022-11-20T05:07:28;10.60;;;1.83;;
72337;SDS011;60294;64.134;-21.862;2022-11-20T05:09:54;10.60;;;2.20;;
72337;SDS011;60294;64.134;-21.862;2022-11-20T05:12:20;19.13;;;2.23;;
72337;SDS011;60294;64.134;-21.862;2022-11-20T05:14:46;11.10;;;2.20;;
72337;SDS011;60294;64.134;-21.862;2022-11-20T05:17:11;11.80;;;2.23;;
72337;SDS011;60294;64.134;-21.862;2022-11-20T05:19:37;10.53;;;1.83;;
72337;SDS011;60294;64.134;-21.862;2022-11-20T05:22:04;11.27;;;2.07;;
72337;SDS011;60294;64.134;-21.862;2022-11-20T05:24:30;17.47;;;2.43;;
72337;SDS011;60294;64.134;-21.862;2022-11-20T05:26:56;19.90;;;1.73;;
72337;SDS011;60294;64.134;-21.862;2022-11-20T05:29:21;6.07;;;1.47;;
72337;SDS011;60294;64.134;-21.862;2022-11-20T05:31:47;12.83;;;1.93;;
72337;SDS011;60294;64.134;-21.862;2022-11-20T05:34:13;7.90;;;2.07;;
72337;SDS011;60294;64.134;-21.862;2022-11-20T05:36:39;5.27;;;0.93;;
72337;SDS011;60294;64.134;-21.862;2022-11-20T05:39:04;6.60;;;2.50;;
72337;SDS011;60294;64.134;-21.862;2022-11-20T05:41:30;6.33;;;0.97;;
72337;SDS011;60294;64.134;-21.862;2022-11-20T05:43:58;4.80;;;0.93;;
72337;SDS011;60294;64.134;-21.862;2022-11-20T05:46:24;3.97;;;0.70;;
72337;SDS011;60294;64.134;-21.862;2022-11-20T05:48:50;6.27;;;1.13;;
72337;SDS011;60294;64.134;-21.862;2022-11-20T05:51:17;4.40;;;0.60;;
72337;SDS011;60294;64.134;-21.862;2022-11-20T05:53:44;4.00;;;0.87;;
72337;SDS011;60294;64.134;-21.862;2022-11-20T05:56:11;3.03;;;0.63;;
72337;SDS011;60294;64.134;-21.862;2022-11-20T05:58:39;7.63;;;1.10;;
72337;SDS011;60294;64.134;-21.862;2022-11-20T06:01:06;5.70;;;1.07;;
72337;SDS011;60294;64.134;-21.862;2022-11-20T06:03:34;11.63;;;2.00;;
72337;SDS011;60294;64.134;-21.862;2022-11-20T06:06:00;8.03;;;1.50;;
72337;SDS011;60294;64.134;-21.862;2022-11-20T06:08:27;11.37;;;1.70;;
72337;SDS011;60294;64.134;-21.862;2022-11-20T06:10:53;13.30;;;1.83;;
72337;SDS011;60294;64.134;-21.862;2022-11-20T06:13:18;10.90;;;1.27;;
72337;SDS011;60294;64.134;-21.862;2022-11-20T06:15:51;6.13;;;1.20;;
72337;SDS011;60294;64.134;-21.862;2022-11-20T06:20:44;12.23;;;1.60;;
72337;SDS011;60294;64.134;-21.862;2022-11-20T06:23:10;6.00;;;1.13;;
72337;SDS011;60294;64.134;-21.862;2022-11-20T06:25:37;3.77;;;1.00;;
72337;SDS011;60294;64.134;-21.862;2022-11-20T06:28:03;3.80;;;0.73;;
72337;SDS011;60294;64.134;-21.862;2022-11-20T06:30:29;6.93;;;0.90;;
72337;SDS011;60294;64.134;-21.862;2022-11-20T06:32:55;6.93;;;1.20;;
72337;SDS011;60294;64.134;-21.862;2022-11-20T06:35:21;7.27;;;1.77;;
72337;SDS011;60294;64.134;-21.862;2022-11-20T06:37:46;6.63;;;1.33;;
72337;SDS011;60294;64.134;-21.862;2022-11-20T06:40:12;8.90;;;1.10;;
72337;SDS011;60294;64.134;-21.862;2022-11-20T06:42:38;5.17;;;0.80;;
72337;SDS011;60294;64.134;-21.862;2022-11-20T06:45:04;4.13;;;1.00;;
72337;SDS011;60294;64.134;-21.862;2022-11-20T06:47:30;1.90;;;0.50;;
72337;SDS011;60294;64.134;-21.862;2022-11-20T06:49:56;4.33;;;0.70;;
72337;SDS011;60294;64.134;-21.862;2022-11-20T06:52:21;8.40;;;0.73;;
72337;SDS011;60294;64.134;-21.862;2022-11-20T06:54:47;4.90;;;1.00;;
72337;SDS011;60294;64.134;-21.862;2022-11-20T06:57:13;2.20;;;0.80;;
72337;SDS011;60294;64.134;-21.862;2022-11-20T06:59:39;2.80;;;0.80;;
72337;SDS011;60294;64.134;-21.862;2022-11-20T07:02:05;2.03;;;0.40;;
72337;SDS011;60294;64.134;-21.862;2022-11-20T07:04:31;5.10;;;1.10;;
72337;SDS011;60294;64.134;-21.862;2022-11-20T07:06:57;7.57;;;0.80;;
72337;SDS011;60294;64.134;-21.862;2022-11-20T07:09:22;3.03;;;0.53;;
72337;SDS011;60294;64.134;-21.862;2022-11-20T07:11:48;1.20;;;0.60;;
72337;SDS011;60294;64.134;-21.862;2022-11-20T07:14:14;5.83;;;1.93;;
72337;SDS011;60294;64.134;-21.862;2022-11-20T07:16:39;7.57;;;0.93;;
72337;SDS011;60294;64.134;-21.862;2022-11-20T07:19:05;1.40;;;0.40;;
72337;SDS011;60294;64.134;-21.862;2022-11-20T07:21:31;3.27;;;0.50;;
72337;SDS011;60294;64.134;-21.862;2022-11-20T07:23:57;3.63;;;1.23;;
72337;SDS011;60294;64.134;-21.862;2022-11-20T07:26:22;4.97;;;0.83;;
72337;SDS011;60294;64.134;-21.862;2022-11-20T07:28:48;4.40;;;0.57;;
72337;SDS011;60294;64.134;-21.862;2022-11-20T07:31:14;6.80;;;0.60;;
72337;SDS011;60294;64.134;-21.862;2022-11-20T07:33:40;6.00;;;0.90;;
72337;SDS011;60294;64.134;-21.862;2022-11-20T07:36:06;5.97;;;0.90;;
72337;SDS011;60294;64.134;-21.862;2022-11-20T07:38:32;3.07;;;0.60;;
72337;SDS011;60294;64.134;-21.862;2022-11-20T07:40:57;7.13;;;0.93;;
72337;SDS011;60294;64.134;-21.862;2022-11-20T07:43:26;3.90;;;1.00;;
72337;SDS011;60294;64.134;-21.862;2022-11-20T07:45:54;2.47;;;0.33;;
72337;SDS011;60294;64.134;-21.862;2022-11-20T07:48:21;3.83;;;0.87;;
72337;SDS011;60294;64.134;-21.862;2022-11-20T07:50:47;7.50;;;1.97;;
72337;SDS011;60294;64.134;-21.862;2022-11-20T07:53:13;3.47;;;0.80;;
72337;SDS011;60294;64.134;-21.862;2022-11-20T07:55:39;3.33;;;0.80;;
72337;SDS011;60294;64.134;-21.862;2022-11-20T07:58:05;7.00;;;1.37;;
72337;SDS011;60294;64.134;-21.862;2022-11-20T08:00:31;8.97;;;2.27;;
72337;SDS011;60294;64.134;-21.862;2022-11-20T08:02:57;6.43;;;1.17;;
72337;SDS011;60294;64.134;-21.862;2022-11-20T08:05:22;16.73;;;3.67;;
72337;SDS011;60294;64.134;-21.862;2022-11-20T08:07:48;18.97;;;4.30;;
72337;SDS011;60294;64.134;-21.862;2022-11-20T08:10:14;13.90;;;2.63;;
72337;SDS011;60294;64.134;-21.862;2022-11-20T08:12:48;9.43;;;2.27;;
72337;SDS011;60294;64.134;-21.862;2022-11-20T08:15:33;14.97;;;2.37;;
72337;SDS011;60294;64.134;-21.862;2022-11-20T08:18:03;3.23;;;1.03;;
72337;SDS011;60294;64.134;-21.862;2022-11-20T08:20:29;14.17;;;2.43;;
72337;SDS011;60294;64.134;-21.862;2022-11-20T08:22:59;14.33;;;5.07;;
72337;SDS011;60294;64.134;-21.862;2022-11-20T08:25:26;5.63;;;1.93;;
72337;SDS011;60294;64.134;-21.862;2022-11-20T08:27:53;6.70;;;1.13;;
72337;SDS011;60294;64.134;-21.862;2022-11-20T08:30:21;6.70;;;0.70;;
72337;SDS011;60294;64.134;-21.862;2022-11-20T08:32:47;4.47;;;0.93;;
72337;SDS011;60294;64.134;-21.862;2022-11-20T08:35:13;5.27;;;1.60;;
72337;SDS011;60294;64.134;-21.862;2022-11-20T08:37:39;3.23;;;1.27;;
72337;SDS011;60294;64.134;-21.862;2022-11-20T08:40:08;2.17;;;1.30;;
72337;SDS011;60294;64.134;-21.862;2022-11-20T08:42:35;3.83;;;0.97;;
72337;SDS011;60294;64.134;-21.862;2022-11-20T08:45:00;2.30;;;0.50;;
72337;SDS011;60294;64.134;-21.862;2022-11-20T08:47:26;0.30;;;0.30;;
72337;SDS011;60294;64.134;-21.862;2022-11-20T08:49:52;0.90;;;0.27;;
72337;SDS011;60294;64.134;-21.862;2022-11-20T08:52:18;2.23;;;0.73;;
72337;SDS011;60294;64.134;-21.862;2022-11-20T08:54:44;2.33;;;0.33;;
72337;SDS011;60294;64.134;-21.862;2022-11-20T08:57:09;4.17;;;0.53;;
72337;SDS011;60294;64.134;-21.862;2022-11-20T08:59:35;0.60;;;0.40;;
72337;SDS011;60294;64.134;-21.862;2022-11-20T09:02:01;2.00;;;0.47;;
72337;SDS011;60294;64.134;-21.862;2022-11-20T09:04:27;1.83;;;0.40;;
72337;SDS011;60294;64.134;-21.862;2022-11-20T09:06:52;1.00;;;0.27;;
72337;SDS011;60294;64.134;-21.862;2022-11-20T09:09:18;2.40;;;0.63;;
72337;SDS011;60294;64.134;-21.862;2022-11-20T09:11:44;7.20;;;0.80;;
72337;SDS011;60294;64.134;-21.862;2022-11-20T09:14:10;6.97;;;1.17;;
72337;SDS011;60294;64.134;-21.862;2022-11-20T09:16:35;1.47;;;0.30;;
72337;SDS011;60294;64.134;-21.862;2022-11-20T09:19:01;6.07;;;0.73;;
72337;SDS011;60294;64.134;-21.862;2022-11-20T09:21:27;6.67;;;0.70;;
72337;SDS011;60294;64.134;-21.862;2022-11-20T09:23:53;6.00;;;1.03;;
72337;SDS011;60294;64.134;-21.862;2022-11-20T09:26:18;3.23;;;0.50;;
72337;SDS011;60294;64.134;-21.862;2022-11-20T09:28:44;8.13;;;1.70;;
72337;SDS011;60294;64.134;-21.862;2022-11-20T09:31:17;9.40;;;0.93;;
72337;SDS011;60294;64.134;-21.862;2022-11-20T09:33:47;5.50;;;1.03;;
72337;SDS011;60294;64.134;-21.862;2022-11-20T09:36:13;6.13;;;1.03;;
72337;SDS011;60294;64.134;-21.862;2022-11-20T09:38:39;4.03;;;0.80;;
72337;SDS011;60294;64.134;-21.862;2022-11-20T09:41:19;3.20;;;0.60;;
72337;SDS011;60294;64.134;-21.862;2022-11-20T09:46:46;5.27;;;1.77;;
72337;SDS011;60294;64.134;-21.862;2022-11-20T09:52:28;6.70;;;0.90;;
72337;SDS011;60294;64.134;-21.862;2022-11-20T09:55:02;4.03;;;1.00;;
72337;SDS011;60294;64.134;-21.862;2022-11-20T09:57:36;5.63;;;1.00;;
72337;SDS011;60294;64.134;-21.862;2022-11-20T10:00:08;11.63;;;1.80;;
72337;SDS011;60294;64.134;-21.862;2022-11-20T10:02:57;7.40;;;1.67;;
72337;SDS011;60294;64.134;-21.862;2022-11-20T10:05:31;4.90;;;0.90;;
72337;SDS011;60294;64.134;-21.862;2022-11-20T10:11:04;12.47;;;1.50;;
72337;SDS011;60294;64.134;-21.862;2022-11-20T10:13:44;4.20;;;0.53;;
72337;SDS011;60294;64.134;-21.862;2022-11-20T10:16:28;0.90;;;0.57;;
72337;SDS011;60294;64.134;-21.862;2022-11-20T10:24:41;3.50;;;0.40;;
72337;SDS011;60294;64.134;-21.862;2022-11-20T10:30:08;0.30;;;0.30;;
72337;SDS011;60294;64.134;-21.862;2022-11-20T10:32:43;1.57;;;0.60;;
72337;SDS011;60294;64.134;-21.862;2022-11-20T10:35:27;0.57;;;0.30;;
72337;SDS011;60294;64.134;-21.862;2022-11-20T10:38:05;1.30;;;0.50;;
72337;SDS011;60294;64.134;-21.862;2022-11-20T10:40:40;2.03;;;0.50;;
72337;SDS011;60294;64.134;-21.862;2022-11-20T10:48:27;2.33;;;0.30;;
72337;SDS011;60294;64.134;-21.862;2022-11-20T10:53:35;0.63;;;0.20;;
72337;SDS011;60294;64.134;-21.862;2022-11-20T10:56:07;0.83;;;0.40;;
72337;SDS011;60294;64.134;-21.862;2022-11-20T11:01:39;1.07;;;0.30;;
72337;SDS011;60294;64.134;-21.862;2022-11-20T11:06:51;3.20;;;0.30;;
72337;SDS011;60294;64.134;-21.862;2022-11-20T11:09:32;0.57;;;0.27;;
72337;SDS011;60294;64.134;-21.862;2022-11-20T11:12:00;0.30;;;0.20;;
72337;SDS011;60294;64.134;-21.862;2022-11-20T11:14:26;3.33;;;0.30;;
72337;SDS011;60294;64.134;-21.862;2022-11-20T11:16:53;2.30;;;0.40;;
72337;SDS011;60294;64.134;-21.862;2022-11-20T11:19:20;2.40;;;0.50;;
72337;SDS011;60294;64.134;-21.862;2022-11-20T11:21:50;3.07;;;0.47;;
72337;SDS011;60294;64.134;-21.862;2022-11-20T11:24:25;1.10;;;0.47;;
72337;SDS011;60294;64.134;-21.862;2022-11-20T11:27:03;2.73;;;0.40;;
72337;SDS011;60294;64.134;-21.862;2022-11-20T11:29:36;5.55;;;0.73;;
72337;SDS011;60294;64.134;-21.862;2022-11-20T11:34:31;2.47;;;0.40;;
72337;SDS011;60294;64.134;-21.862;2022-11-20T11:36:57;1.90;;;0.30;;
72337;SDS011;60294;64.134;-21.862;2022-11-20T11:39:26;3.13;;;0.40;;
72337;SDS011;60294;64.134;-21.862;2022-11-20T11:41:54;1.23;;;0.37;;
72337;SDS011;60294;64.134;-21.862;2022-11-20T11:44:24;2.07;;;0.40;;
72337;SDS011;60294;64.134;-21.862;2022-11-20T11:47:26;1.85;;;0.40;;
72337;SDS011;60294;64.134;-21.862;2022-11-20T11:55:36;0.17;;;0.17;;
72337;SDS011;60294;64.134;-21.862;2022-11-20T11:58:28;2.00;;;0.40;;
72337;SDS011;60294;64.134;-21.862;2022-11-20T12:03:50;1.33;;;0.40;;
72337;SDS011;60294;64.134;-21.862;2022-11-20T12:06:27;2.23;;;0.40;;
72337;SDS011;60294;64.134;-21.862;2022-11-20T12:09:01;4.70;;;0.90;;
72337;SDS011;60294;64.134;-21.862;2022-11-20T12:17:02;5.80;;;0.37;;
72337;SDS011;60294;64.134;-21.862;2022-11-20T12:19:31;4.57;;;0.50;;
72337;SDS011;60294;64.134;-21.862;2022-11-20T12:24:35;2.80;;;0.50;;
72337;SDS011;60294;64.134;-21.862;2022-11-20T12:30:10;0.57;;;0.30;;
72337;SDS011;60294;64.134;-21.862;2022-11-20T12:41:07;2.53;;;1.47;;
72337;SDS011;60294;64.134;-21.862;2022-11-20T12:44:29;0.97;;;0.30;;
72337;SDS011;60294;64.134;-21.862;2022-11-20T12:58:12;1.33;;;0.50;;
72337;SDS011;60294;64.134;-21.862;2022-11-20T13:06:36;1.23;;;1.07;;
72337;SDS011;60294;64.134;-21.862;2022-11-20T13:09:04;0.27;;;0.27;;
72337;SDS011;60294;64.134;-21.862;2022-11-20T13:11:57;1.67;;;0.20;;
72337;SDS011;60294;64.134;-21.862;2022-11-20T13:17:46;4.13;;;0.40;;
72337;SDS011;60294;64.134;-21.862;2022-11-20T13:20:26;1.27;;;0.45;;
72337;SDS011;60294;64.134;-21.862;2022-11-20T13:22:53;3.60;;;0.60;;
72337;SDS011;60294;64.134;-21.862;2022-11-20T13:25:26;4.40;;;0.50;;
72337;SDS011;60294;64.134;-21.862;2022-11-20T13:28:23;3.53;;;1.27;;
72337;SDS011;60294;64.134;-21.862;2022-11-20T13:30:56;4.10;;;0.40;;
72337;SDS011;60294;64.134;-21.862;2022-11-20T13:33:28;4.07;;;0.60;;
72337;SDS011;60294;64.134;-21.862;2022-11-20T13:35:58;2.87;;;0.70;;
72337;SDS011;60294;64.134;-21.862;2022-11-20T13:38:26;3.87;;;0.30;;
72337;SDS011;60294;64.134;-21.862;2022-11-20T13:40:56;1.90;;;0.20;;
72337;SDS011;60294;64.134;-21.862;2022-11-20T13:46:09;5.20;;;0.70;;
72337;SDS011;60294;64.134;-21.862;2022-11-20T13:56:36;3.23;;;0.80;;
72337;SDS011;60294;64.134;-21.862;2022-11-20T14:02:13;6.53;;;0.98;;
72337;SDS011;60294;64.134;-21.862;2022-11-20T14:04:43;5.50;;;0.83;;
72337;SDS011;60294;64.134;-21.862;2022-11-20T14:07:12;4.40;;;0.60;;
72337;SDS011;60294;64.134;-21.862;2022-11-20T14:09:39;7.20;;;0.93;;
72337;SDS011;60294;64.134;-21.862;2022-11-20T14:12:17;5.40;;;0.87;;
72337;SDS011;60294;64.134;-21.862;2022-11-20T14:14:49;6.40;;;1.63;;
72337;SDS011;60294;64.134;-21.862;2022-11-20T14:19:54;7.60;;;1.10;;
72337;SDS011;60294;64.134;-21.862;2022-11-20T14:22:25;8.17;;;1.80;;
72337;SDS011;60294;64.134;-21.862;2022-11-20T14:25:06;4.50;;;1.17;;
72337;SDS011;60294;64.134;-21.862;2022-11-20T14:27:42;6.37;;;2.10;;
72337;SDS011;60294;64.134;-21.862;2022-11-20T14:30:13;8.20;;;1.60;;
72337;SDS011;60294;64.134;-21.862;2022-11-20T14:32:42;5.03;;;1.20;;
72337;SDS011;60294;64.134;-21.862;2022-11-20T14:35:10;11.00;;;1.57;;
72337;SDS011;60294;64.134;-21.862;2022-11-20T14:37:44;9.33;;;1.20;;
72337;SDS011;60294;64.134;-21.862;2022-11-20T14:40:30;10.17;;;1.57;;
72337;SDS011;60294;64.134;-21.862;2022-11-20T14:43:00;8.70;;;1.23;;
72337;SDS011;60294;64.134;-21.862;2022-11-20T14:45:26;11.07;;;2.27;;
72337;SDS011;60294;64.134;-21.862;2022-11-20T14:47:53;13.73;;;2.10;;
72337;SDS011;60294;64.134;-21.862;2022-11-20T14:50:28;13.13;;;2.00;;
72337;SDS011;60294;64.134;-21.862;2022-11-20T14:52:58;11.55;;;1.95;;
72337;SDS011;60294;64.134;-21.862;2022-11-20T14:55:30;10.10;;;2.27;;
72337;SDS011;60294;64.134;-21.862;2022-11-20T14:58:01;11.10;;;2.10;;
72337;SDS011;60294;64.134;-21.862;2022-11-20T15:00:33;10.83;;;1.63;;
72337;SDS011;60294;64.134;-21.862;2022-11-20T15:02:59;8.43;;;2.23;;
72337;SDS011;60294;64.134;-21.862;2022-11-20T15:05:36;20.63;;;2.17;;
72337;SDS011;60294;64.134;-21.862;2022-11-20T15:08:10;12.77;;;2.17;;
72337;SDS011;60294;64.134;-21.862;2022-11-20T15:10:38;12.37;;;2.17;;
72337;SDS011;60294;64.134;-21.862;2022-11-20T15:13:13;11.87;;;1.97;;
72337;SDS011;60294;64.134;-21.862;2022-11-20T15:15:49;9.98;;;2.10;;
72337;SDS011;60294;64.134;-21.862;2022-11-20T15:18:27;10.80;;;1.77;;
72337;SDS011;60294;64.134;-21.862;2022-11-20T15:21:02;7.07;;;1.67;;
72337;SDS011;60294;64.134;-21.862;2022-11-20T15:23:31;7.47;;;1.70;;
72337;SDS011;60294;64.134;-21.862;2022-11-20T15:25:57;13.37;;;2.73;;
72337;SDS011;60294;64.134;-21.862;2022-11-20T15:28:33;2.93;;;0.77;;
72337;SDS011;60294;64.134;-21.862;2022-11-20T15:31:13;13.40;;;2.10;;
72337;SDS011;60294;64.134;-21.862;2022-11-20T15:33:41;10.70;;;2.07;;
72337;SDS011;60294;64.134;-21.862;2022-11-20T15:36:07;6.70;;;1.97;;
72337;SDS011;60294;64.134;-21.862;2022-11-20T15:38:34;7.37;;;1.20;;
72337;SDS011;60294;64.134;-21.862;2022-11-20T15:41:01;6.43;;;1.27;;
72337;SDS011;60294;64.134;-21.862;2022-11-20T15:43:27;12.43;;;2.30;;
72337;SDS011;60294;64.134;-21.862;2022-11-20T15:45:53;6.70;;;0.73;;
72337;SDS011;60294;64.134;-21.862;2022-11-20T15:48:26;2.90;;;0.70;;
72337;SDS011;60294;64.134;-21.862;2022-11-20T15:53:32;8.50;;;1.17;;
72337;SDS011;60294;64.134;-21.862;2022-11-20T15:55:58;11.00;;;3.37;;
72337;SDS011;60294;64.134;-21.862;2022-11-20T15:58:23;9.03;;;1.57;;
72337;SDS011;60294;64.134;-21.862;2022-11-20T16:00:50;5.00;;;1.23;;
72337;SDS011;60294;64.134;-21.862;2022-11-20T16:03:16;7.20;;;1.50;;
72337;SDS011;60294;64.134;-21.862;2022-11-20T16:05:43;3.67;;;1.37;;
72337;SDS011;60294;64.134;-21.862;2022-11-20T16:08:09;10.87;;;2.07;;
72337;SDS011;60294;64.134;-21.862;2022-11-20T16:10:35;9.23;;;1.40;;
72337;SDS011;60294;64.134;-21.862;2022-11-20T16:13:03;4.40;;;0.90;;
72337;SDS011;60294;64.134;-21.862;2022-11-20T16:15:52;3.03;;;0.90;;
72337;SDS011;60294;64.134;-21.862;2022-11-20T16:18:22;4.90;;;0.83;;